Time;durP1;ratioP1;P1;durP2;ratioP2;P2;SDS_P1;SDS_P2;PMS_P1;PMS_P2;Temp;Humidity;BMP_temperature;BMP_pressure;BME280_temperature;BME280_humidity;BME280_pressure;Samples;Min_cycle;Max_cycle;Signal;HPM_P1;HPM_P2
2021/01/27 00:01:16;;;;;;;;;;;;;;;21.76;25.00;96419.56;4961862;29;651;-73
2021/01/27 00:03:41;;;;;;;;;;;;;;;21.73;24.90;96420.50;4962309;29;687;-73
2021/01/27 00:06:07;;;;;;;;;;;;;;;21.74;24.79;96416.41;4961646;29;1972;-73
2021/01/27 00:08:32;;;;;;;;;;;;;;;21.75;24.90;96412.31;4961510;29;885;-73
2021/01/27 00:10:58;;;;;;;;;;;;;;;21.79;24.41;96418.56;4961429;29;831;-73
2021/01/27 00:13:23;;;;;;;;;;;;;;;21.80;24.83;96428.63;4961584;29;1011;-73
2021/01/27 00:15:49;;;;;;;;;;;;;;;21.85;24.58;96427.19;4961638;29;671;-73
2021/01/27 00:18:15;;;;;;;;;;;;;;;22.02;24.51;96430.31;4961718;29;655;-73
2021/01/27 00:20:41;;;;;;;;;;;;;;;21.64;24.72;96440.41;4961852;29;659;-73
2021/01/27 00:23:06;;;;;;;;;;;;;;;21.25;25.15;96451.63;4961061;29;937;-73
2021/01/27 00:25:32;;;;;;;;;;;;;;;21.14;25.38;96465.53;4961262;29;928;-73
2021/01/27 00:27:58;;;;;;;;;;;;;;;21.46;25.15;96451.84;4961589;29;1902;-72
2021/01/27 00:30:25;;;;;;;;;;;;;;;21.56;24.87;96462.63;4961518;29;614;-73
2021/01/27 00:32:51;;;;;;;;;;;;;;;21.88;24.41;96459.41;4961454;29;682;-73
2021/01/27 00:35:17;;;;;;;;;;;;;;;21.79;24.60;96454.59;4961505;29;620;-73
2021/01/27 00:37:43;;;;;;;;;;;;;;;21.70;24.65;96444.13;4961456;29;986;-73
2021/01/27 00:40:08;;;;;;;;;;;;;;;21.75;24.43;96451.16;4961575;29;1007;-73
2021/01/27 00:42:34;;;;;;;;;;;;;;;21.68;24.61;96455.16;4961650;29;1050;-73
2021/01/27 00:44:59;;;;;;;;;;;;;;;21.83;24.48;96450.31;4961385;29;679;-73
2021/01/27 00:47:25;;;;;;;;;;;;;;;21.89;24.47;96432.66;4961578;29;1902;-73
2021/01/27 00:49:50;;;;;;;;;;;;;;;21.72;24.53;96441.59;4945156;29;656;-73
2021/01/27 00:52:19;;;;;;;;;;;;;;;21.68;24.51;96434.56;4960594;29;1253;-73
2021/01/27 00:54:45;;;;;;;;;;;;;;;21.75;24.37;96432.13;4960526;29;1181;-73
2021/01/27 00:57:11;;;;;;;;;;;;;;;22.33;23.77;96433.53;4961231;29;891;-73
2021/01/27 00:59:36;;;;;;;;;;;;;;;22.10;24.05;96414.53;4960695;29;1335;-73
2021/01/27 01:02:02;;;;;;;;;;;;;;;21.67;24.28;96410.34;4961350;29;627;-73
2021/01/27 01:04:40;;;;;;;;;;;;;;;21.44;25.00;96397.78;4960806;29;1184;-73
2021/01/27 01:07:05;;;;;;;;;;;;;;;21.92;24.29;96392.06;4961058;29;1899;-72
2021/01/27 01:09:31;;;;;;;;;;;;;;;21.75;24.37;96384.00;4960894;29;952;-73
2021/01/27 01:11:56;;;;;;;;;;;;;;;21.76;24.63;96385.59;4961039;29;1212;-73
2021/01/27 01:14:21;;;;;;;;;;;;;;;21.82;24.56;96377.97;4961170;29;703;-73
2021/01/27 01:16:47;;;;;;;;;;;;;;;21.75;24.54;96378.34;4961264;29;624;-73
2021/01/27 01:19:12;;;;;;;;;;;;;;;21.88;24.34;96391.47;4961325;29;683;-73
2021/01/27 01:21:39;;;;;;;;;;;;;;;21.85;24.15;96385.47;4960809;29;858;-73
2021/01/27 01:24:05;;;;;;;;;;;;;;;21.72;24.25;96382.16;4961013;29;813;-73
2021/01/27 01:26:30;;;;;;;;;;;;;;;21.94;24.03;96372.53;4960989;29;1915;-72
2021/01/27 01:28:56;;;;;;;;;;;;;;;21.83;24.13;96368.22;4961273;29;686;-73
2021/01/27 01:31:24;;;;;;;;;;;;;;;21.84;24.26;96381.09;4961266;29;650;-73
2021/01/27 01:33:50;;;;;;;;;;;;;;;21.75;24.32;96377.56;4961520;28;727;-73
2021/01/27 01:36:15;;;;;;;;;;;;;;;21.88;24.17;96374.47;4963160;29;1073;-73
2021/01/27 01:38:41;;;;;;;;;;;;;;;21.53;24.46;96373.03;4964377;29;846;-73
2021/01/27 01:41:06;;;;;;;;;;;;;;;20.92;25.33;96374.50;4964237;29;989;-72
2021/01/27 01:43:36;;;;;;;;;;;;;;;21.45;24.57;96380.34;4964185;29;655;-73
2021/01/27 01:46:01;;;;;;;;;;;;;;;20.41;24.46;96206.59;4964245;29;576;-73
2021/01/27 01:48:30;;;;;;;;;;;;;;;22.08;23.86;96371.75;4964292;29;1911;-73
2021/01/27 01:51:15;;;;;;;;;;;;;;;20.88;25.86;96382.38;4964248;29;796;-73
2021/01/27 01:53:40;;;;;;;;;;;;;;;22.08;24.15;96385.91;4963739;29;910;-73
2021/01/27 01:56:06;;;;;;;;;;;;;;;23.31;22.30;96390.78;4963972;29;747;-72
2021/01/27 01:58:32;;;;;;;;;;;;;;;22.95;22.47;96388.41;4947787;29;699;-73
2021/01/27 02:00:58;;;;;;;;;;;;;;;21.82;23.88;96377.19;4947580;29;681;-73
2021/01/27 02:03:23;;;;;;;;;;;;;;;21.20;24.86;96373.09;4963902;29;659;-73
2021/01/27 02:05:49;;;;;;;;;;;;;;;21.32;24.66;96374.13;4963429;28;1076;-73
2021/01/27 02:08:14;;;;;;;;;;;;;;;21.87;24.21;96368.03;4963767;29;2165;-73
2021/01/27 02:10:40;;;;;;;;;;;;;;;21.82;24.28;96360.22;4963996;29;879;-73
2021/01/27 02:13:20;;;;;;;;;;;;;;;21.88;23.94;96363.94;4964078;29;656;-73
2021/01/27 02:15:50;;;;;;;;;;;;;;;21.95;23.81;96357.09;4963742;29;624;-73
2021/01/27 02:18:34;;;;;;;;;;;;;;;21.72;24.24;96353.84;4947083;29;762;-73
2021/01/27 02:21:18;;;;;;;;;;;;;;;21.83;23.98;96351.22;4963460;29;951;-73
2021/01/27 02:24:02;;;;;;;;;;;;;;;21.84;24.18;96357.66;4963188;29;850;-73
2021/01/27 02:26:46;;;;;;;;;;;;;;;21.76;24.13;96357.28;4963434;29;1895;-73
2021/01/27 02:29:20;;;;;;;;;;;;;;;22.05;23.76;96367.06;4963491;29;673;-73
2021/01/27 02:31:59;;;;;;;;;;;;;;;22.10;23.35;96360.72;4946779;29;663;-73
2021/01/27 02:34:40;;;;;;;;;;;;;;;21.74;23.90;96359.00;4963318;29;663;-73
2021/01/27 02:37:06;;;;;;;;;;;;;;;21.14;24.76;96362.91;4963045;29;953;-73
2021/01/27 02:39:32;;;;;;;;;;;;;;;21.43;24.19;96362.25;4946292;29;925;-73
2021/01/27 02:42:12;;;;;;;;;;;;;;;21.89;23.85;96364.69;4963227;29;679;-73
2021/01/27 02:44:43;;;;;;;;;;;;;;;20.60;23.65;96156.44;4963155;29;620;-73
2021/01/27 02:47:12;;;;;;;;;;;;;;;21.84;23.85;96363.31;4946213;29;1902;-73
2021/01/27 02:49:39;;;;;;;;;;;;;;;21.94;23.64;96355.53;4946351;29;938;-73
2021/01/27 02:52:09;;;;;;;;;;;;;;;21.69;23.80;96357.63;4946135;29;1123;-73
2021/01/27 02:54:38;;;;;;;;;;;;;;;21.82;23.87;96349.66;4963069;29;933;-73
2021/01/27 02:57:12;;;;;;;;;;;;;;;21.75;23.58;96344.38;4963081;29;699;-72
2021/01/27 02:59:42;;;;;;;;;;;;;;;21.77;23.88;96346.72;4946356;29;628;-73
2021/01/27 03:02:08;;;;;;;;;;;;;;;21.91;23.37;96350.81;4946334;29;632;-73
2021/01/27 03:04:38;;;;;;;;;;;;;;;21.94;23.66;96328.00;4946484;29;691;-73
2021/01/27 03:07:04;;;;;;;;;;;;;;;21.86;23.50;96326.81;4962233;28;1895;-73
2021/01/27 03:09:32;;;;;;;;;;;;;;;21.99;23.63;96329.38;4945736;29;892;-73
2021/01/27 03:11:58;;;;;;;;;;;;;;;21.80;23.84;96321.03;4946274;29;951;-73
2021/01/27 03:14:26;;;;;;;;;;;;;;;21.99;23.60;96329.38;4962975;29;687;-73
2021/01/27 03:17:10;;;;;;;;;;;;;;;21.61;23.94;96333.81;4962861;29;703;-73
2021/01/27 03:19:59;;;;;;;;;;;;;;;21.22;24.44;96321.69;4945926;29;620;-73
2021/01/27 03:22:33;;;;;;;;;;;;;;;21.42;24.19;96309.78;4954657;29;1409;-73
2021/01/27 03:25:00;;;;;;;;;;;;;;;21.74;23.49;96313.72;4945451;29;902;-73
2021/01/27 03:27:30;;;;;;;;;;;;;;;21.91;23.49;96305.53;4945682;29;1971;-73
2021/01/27 03:29:59;;;;;;;;;;;;;;;21.97;23.43;96317.75;4946070;29;719;-72
2021/01/27 03:32:24;;;;;;;;;;;;;;;21.93;23.45;96308.66;4945678;29;611;-73
2021/01/27 03:34:55;;;;;;;;;;;;;;;21.81;23.56;96325.47;4962272;29;635;-72
2021/01/27 03:37:24;;;;;;;;;;;;;;;21.77;23.60;96319.19;4945292;29;1107;-73
2021/01/27 03:39:50;;;;;;;;;;;;;;;21.84;23.72;96318.81;4962208;29;859;-73
2021/01/27 03:42:17;;;;;;;;;;;;;;;21.73;23.56;96312.94;4945502;29;923;-73
2021/01/27 03:44:47;;;;;;;;;;;;;;;21.78;23.57;96320.75;4945427;29;837;-73
2021/01/27 03:47:16;;;;;;;;;;;;;;;21.76;23.76;96316.84;4945788;29;1903;-73
2021/01/27 03:49:50;;;;;;;;;;;;;;;21.80;23.44;96315.38;4945375;29;663;-72
2021/01/27 03:52:26;;;;;;;;;;;;;;;21.36;23.84;96306.06;4945122;29;876;-73
2021/01/27 03:54:54;;;;;;;;;;;;;;;21.23;24.00;96321.19;4961582;29;900;-73
2021/01/27 03:57:20;;;;;;;;;;;;;;;21.49;24.12;96313.00;4945176;29;620;-73
2021/01/27 03:59:46;;;;;;;;;;;;;;;21.53;23.88;96324.13;4945286;29;735;-73
2021/01/27 04:02:16;;;;;;;;;;;;;;;21.82;23.49;96329.84;4945246;29;906;-73
2021/01/27 04:04:41;;;;;;;;;;;;;;;21.75;23.59;96337.94;4961844;29;656;-73
2021/01/27 04:07:07;;;;;;;;;;;;;;;21.67;23.51;96325.44;4961233;29;1965;-73
2021/01/27 04:09:32;;;;;;;;;;;;;;;21.87;23.37;96330.44;4961391;29;839;-73
2021/01/27 04:11:58;;;;;;;;;;;;;;;21.62;23.87;96332.56;4962085;29;856;-73
2021/01/27 04:14:23;;;;;;;;;;;;;;;21.67;23.61;96342.41;4962044;29;554;-73
2021/01/27 04:16:49;;;;;;;;;;;;;;;21.85;23.26;96337.34;4961970;29;638;-73
2021/01/27 04:19:14;;;;;;;;;;;;;;;21.85;23.33;96342.22;4961687;29;738;-73
2021/01/27 04:21:40;;;;;;;;;;;;;;;21.75;23.27;96344.38;4961264;29;955;-73
2021/01/27 04:24:05;;;;;;;;;;;;;;;21.79;23.43;96350.63;4961379;29;891;-73
2021/01/27 04:26:31;;;;;;;;;;;;;;;21.77;23.33;96341.84;4961466;29;1903;-73
2021/01/27 04:28:56;;;;;;;;;;;;;;;21.95;23.23;96334.44;4961859;29;671;-73
2021/01/27 04:31:22;;;;;;;;;;;;;;;21.96;23.18;96330.31;4961515;29;643;-73
2021/01/27 04:33:47;;;;;;;;;;;;;;;21.70;23.43;96347.88;4961612;29;659;-73
2021/01/27 04:36:13;;;;;;;;;;;;;;;21.93;23.23;96337.75;4961181;29;840;-72
2021/01/27 04:38:38;;;;;;;;;;;;;;;21.79;23.26;96327.19;4961103;29;837;-73
2021/01/27 04:41:04;;;;;;;;;;;;;;;21.94;23.15;96328.00;4944820;29;872;-73
2021/01/27 04:43:29;;;;;;;;;;;;;;;21.82;23.29;96331.91;4944929;29;665;-73
2021/01/27 04:45:56;;;;;;;;;;;;;;;21.50;23.71;96327.91;4961891;29;632;-73
2021/01/27 04:48:40;;;;;;;;;;;;;;;21.14;23.86;96329.78;4945012;29;1965;-72
2021/01/27 04:51:06;;;;;;;;;;;;;;;21.43;23.88;96333.97;4961225;29;892;-73
2021/01/27 04:53:38;;;;;;;;;;;;;;;21.51;23.55;96332.34;4944243;29;900;-73
2021/01/27 04:56:19;;;;;;;;;;;;;;;21.67;23.41;96337.53;4944672;29;697;-73
2021/01/27 04:58:44;;;;;;;;;;;;;;;21.87;23.05;96316.28;4961355;29;624;-73
2021/01/27 05:01:14;;;;;;;;;;;;;;;21.90;23.07;96332.28;4961230;29;585;-73
2021/01/27 05:03:48;;;;;;;;;;;;;;;21.78;23.04;96349.06;4961516;29;659;-72
2021/01/27 05:06:18;;;;;;;;;;;;;;;21.90;22.99;96343.59;4963856;28;1902;-74
2021/01/27 05:08:53;;;;;;;;;;;;;;;21.90;22.96;96332.28;4980047;28;1555;-74
2021/01/27 05:11:19;;;;;;;;;;;;;;;21.78;23.24;96329.25;4984237;28;608;-75
2021/01/27 05:13:49;;;;;;;;;;;;;;;22.00;22.75;96337.34;4984554;28;723;-74
2021/01/27 05:16:18;;;;;;;;;;;;;;;21.79;23.17;96325.16;4982581;28;1539;-74
2021/01/27 05:18:43;;;;;;;;;;;;;;;21.78;22.95;96314.31;4983824;28;914;-75
2021/01/27 05:21:16;;;;;;;;;;;;;;;21.81;22.95;96328.28;4983535;28;1559;-75
2021/01/27 05:23:41;;;;;;;;;;;;;;;21.78;23.07;96337.75;4984079;28;1034;-74
2021/01/27 05:26:13;;;;;;;;;;;;;;;22.35;22.23;96357.31;5133299;23;3743;-74
2021/01/27 05:29:13;;;;;;;;;;;;;;;23.06;21.20;96357.41;4950260;29;1099;-74
2021/01/27 05:32:03;;;;;;;;;;;;;;;22.63;21.71;96348.47;4964811;29;841;-74
2021/01/27 05:34:46;;;;;;;;;;;;;;;22.11;22.47;96342.47;5003658;23;3509;-73
2021/01/27 05:37:28;;;;;;;;;;;;;;;23.43;20.90;96351.16;4964245;29;835;-74
2021/01/27 05:40:04;;;;;;;;;;;;;;;22.84;21.42;96364.25;4964364;29;921;-74
2021/01/27 05:42:30;;;;;;;;;;;;;;;21.61;22.81;96379.09;4964656;29;697;-74
2021/01/27 05:45:20;;;;;;;;;;;;;;;21.22;23.61;96383.91;4948832;29;611;-74
2021/01/27 05:47:53;;;;;;;;;;;;;;;22.15;22.11;96377.06;4964574;29;1899;-74
2021/01/27 05:50:28;;;;;;;;;;;;;;;23.08;20.92;96364.13;4947888;29;662;-74
2021/01/27 05:53:13;;;;;;;;;;;;;;;21.93;22.45;96359.63;4964327;29;883;-74
2021/01/27 05:55:55;;;;;;;;;;;;;;;21.78;22.73;96379.44;4964074;29;879;-74
2021/01/27 05:58:27;;;;;;;;;;;;;;;21.73;22.42;96402.75;4964267;29;580;-74
2021/01/27 06:00:52;;;;;;;;;;;;;;;21.64;22.86;96383.78;4964273;29;679;-74
2021/01/27 06:03:25;;;;;;;;;;;;;;;21.39;23.04;96379.41;4964290;29;657;-74
2021/01/27 06:05:50;;;;;;;;;;;;;;;22.42;21.83;96383.69;4964258;29;662;-74
2021/01/27 06:08:23;;;;;;;;;;;;;;;23.36;20.45;96358.84;4963210;29;1961;-74
2021/01/27 06:10:55;;;;;;;;;;;;;;;22.43;21.73;96359.75;4963508;29;1497;-74
2021/01/27 06:13:25;;;;;;;;;;;;;;;21.65;22.58;96368.34;4947580;29;659;-74
2021/01/27 06:15:57;;;;;;;;;;;;;;;22.10;22.14;96357.88;4964184;29;660;-72
2021/01/27 06:18:30;;;;;;;;;;;;;;;23.03;20.75;96353.47;4948123;29;1513;-73
2021/01/27 06:20:58;;;;;;;;;;;;;;;22.99;20.95;96346.44;4963317;28;885;-74
2021/01/27 06:23:36;;;;;;;;;;;;;;;22.02;21.76;96351.84;4963647;29;1389;-74
2021/01/27 06:26:14;;;;;;;;;;;;;;;21.27;23.01;96352.13;4964019;29;714;-74
2021/01/27 06:28:52;;;;;;;;;;;;;;;22.48;21.62;96365.50;4948208;29;1500;-74
2021/01/27 06:31:33;;;;;;;;;;;;;;;23.13;20.43;96354.13;4964040;29;676;-74
2021/01/27 06:34:11;;;;;;;;;;;;;;;22.23;21.69;96346.31;4962889;28;1551;-74
2021/01/27 06:37:03;;;;;;;;;;;;;;;21.88;21.83;96346.16;4963663;29;1035;-75
2021/01/27 06:39:35;;;;;;;;;;;;;;;22.08;22.11;96349.09;4963282;29;840;-74
2021/01/27 06:42:36;;;;;;;;;;;;;;;22.27;21.69;96344.81;4963618;29;631;-74
2021/01/27 06:45:08;;;;;;;;;;;;;;;21.71;22.08;96360.78;4905222;29;1140;-74
2021/01/27 06:47:52;;;;;;;;;;;;;;;21.96;22.02;96356.59;4953935;29;1910;-74
2021/01/27 06:50:24;;;;;;;;;;;;;;;21.43;22.73;96340.41;4947689;29;686;-74
2021/01/27 06:53:05;;;;;;;;;;;;;;;21.14;22.86;96341.09;4963049;29;970;-73
2021/01/27 06:55:46;;;;;;;;;;;;;;;22.82;21.07;96337.69;4928334;29;981;-74
2021/01/27 06:58:34;;;;;;;;;;;;;;;23.06;20.38;96317.69;4958497;29;1524;-74
2021/01/27 07:01:09;;;;;;;;;;;;;;;22.04;21.44;96303.19;4947755;29;694;-74
2021/01/27 07:03:34;;;;;;;;;;;;;;;21.37;22.09;96307.63;4963195;29;645;-74
2021/01/27 07:06:09;;;;;;;;;;;;;;;22.20;21.48;96280.06;4963159;29;1983;-74
2021/01/27 07:08:41;;;;;;;;;;;;;;;23.16;20.01;96276.56;4962975;29;1902;-74
2021/01/27 07:11:25;;;;;;;;;;;;;;;23.30;19.66;96278.50;4962728;29;925;-74
2021/01/27 07:14:15;;;;;;;;;;;;;;;22.61;20.54;96297.16;4963400;29;647;-74
2021/01/27 07:16:52;;;;;;;;;;;;;;;22.46;20.45;96311.38;4962737;29;1524;-74
2021/01/27 07:19:36;;;;;;;;;;;;;;;22.38;21.06;96303.75;4946182;29;2086;-74
2021/01/27 07:22:16;;;;;;;;;;;;;;;23.74;19.08;96303.03;4962960;29;662;-74
2021/01/27 07:25:06;;;;;;;;;;;;;;;22.53;20.54;96287.50;4946823;29;985;-74
2021/01/27 07:27:41;;;;;;;;;;;;;;;21.69;21.60;96284.03;4962272;29;1906;-74
2021/01/27 07:30:11;;;;;;;;;;;;;;;21.29;22.13;96276.81;4946125;29;583;-74
2021/01/27 07:32:45;;;;;;;;;;;;;;;23.07;19.72;96273.84;4947094;29;707;-74
2021/01/27 07:35:27;;;;;;;;;;;;;;;23.24;19.42;96280.50;4946772;29;985;-74
2021/01/27 07:38:20;;;;;;;;;;;;;;;22.70;20.31;96280.03;5127678;23;3684;-72
2021/01/27 07:41:05;;;;;;;;;;;;;;;22.93;19.91;96281.16;4947892;29;957;-74
2021/01/27 07:43:54;;;;;;;;;;;;;;;23.58;19.46;96278.06;5000638;23;3564;-73
2021/01/27 07:46:47;;;;;;;;;;;;;;;23.64;18.93;96270.41;5106984;23;3697;-73
2021/01/27 07:49:39;;;;;;;;;;;;;;;23.57;19.23;96265.13;4985237;23;3514;-72
2021/01/27 07:52:22;;;;;;;;;;;;;;;23.74;19.00;96251.13;4943189;29;643;-73
2021/01/27 07:54:59;;;;;;;;;;;;;;;22.12;20.77;96246.94;4927340;29;946;-73
2021/01/27 07:57:32;;;;;;;;;;;;;;;21.62;21.41;96264.63;4927652;29;674;-73
2021/01/27 08:00:07;;;;;;;;;;;;;;;21.94;20.86;96253.59;4942990;29;694;-73
2021/01/27 08:02:54;;;;;;;;;;;;;;;23.13;19.64;96252.00;4943074;29;607;-73
2021/01/27 08:05:26;;;;;;;;;;;;;;;22.94;19.91;96253.56;4942715;29;936;-73
2021/01/27 08:08:05;;;;;;;;;;;;;;;22.01;20.74;96236.97;4942643;29;1906;-73
2021/01/27 08:10:37;;;;;;;;;;;;;;;21.54;21.59;96250.06;4927394;29;647;-73
2021/01/27 08:13:02;;;;;;;;;;;;;;;22.44;20.59;96264.97;4926507;29;684;-73
2021/01/27 08:15:40;;;;;;;;;;;;;;;23.34;19.41;96253.53;4942851;29;666;-74
2021/01/27 08:18:12;;;;;;;;;;;;;;;22.87;19.66;96249.84;4942939;29;655;-73
2021/01/27 08:20:39;;;;;;;;;;;;;;;21.96;20.88;96234.03;4950741;29;1451;-74
2021/01/27 08:23:23;;;;;;;;;;;;;;;21.05;21.98;96220.31;4945628;29;1369;-74
2021/01/27 08:25:59;;;;;;;;;;;;;;;22.22;20.85;96240.66;4961747;29;1594;-74
2021/01/27 08:28:33;;;;;;;;;;;;;;;23.24;19.48;96249.28;4962138;29;1965;-74
2021/01/27 08:31:08;;;;;;;;;;;;;;;22.53;20.24;96242.16;4961696;29;1576;-74
2021/01/27 08:33:46;;;;;;;;;;;;;;;21.73;21.22;96247.84;4961424;29;1484;-73
2021/01/27 08:36:30;;;;;;;;;;;;;;;21.58;21.42;96258.38;4961497;29;917;-74
2021/01/27 08:39:07;;;;;;;;;;;;;;;22.22;20.62;96257.66;4961980;29;679;-75
2021/01/27 08:41:44;;;;;;;;;;;;;;;23.24;19.39;96248.50;4961727;29;1563;-74
2021/01/27 08:44:19;;;;;;;;;;;;;;;22.32;20.40;96250.63;4963094;28;1013;-74
2021/01/27 08:46:48;;;;;;;;;;;;;;;21.89;21.03;96257.09;4966071;29;1974;-74
2021/01/27 08:49:36;;;;;;;;;;;;;;;22.08;20.65;96261.28;4949519;29;1003;-74
2021/01/27 08:52:08;;;;;;;;;;;;;;;21.63;21.52;96291.66;4964632;29;1500;-74
2021/01/27 08:54:39;;;;;;;;;;;;;;;21.62;21.50;96318.41;4965933;29;683;-75
2021/01/27 08:57:21;;;;;;;;;;;;;;;21.39;21.65;96277.56;4965712;29;703;-74
2021/01/27 09:00:08;;;;;;;;;;;;;;;21.55;21.44;96290.47;4949205;29;1619;-74
2021/01/27 09:02:43;;;;;;;;;;;;;;;21.64;21.59;96296.03;4960448;29;1509;-75
2021/01/27 09:05:14;;;;;;;;;;;;;;;21.18;21.81;96268.13;4965079;29;978;-74
2021/01/27 09:07:49;;;;;;;;;;;;;;;21.47;21.82;96275.16;4964936;29;1977;-74
2021/01/27 09:10:31;;;;;;;;;;;;;;;21.94;21.11;96270.56;4964937;29;1603;-74
2021/01/27 09:13:38;;;;;;;;;;;;;;;22.15;20.70;96269.41;4965179;29;628;-74
2021/01/27 09:16:26;;;;;;;;;;;;;;;21.61;21.34;96260.22;4906653;29;1245;-74
2021/01/27 09:18:58;;;;;;;;;;;;;;;21.83;21.27;96260.63;4948977;29;1048;-74
2021/01/27 09:21:30;;;;;;;;;;;;;;;21.41;21.81;96260.13;4964595;29;1662;-74
2021/01/27 09:23:57;;;;;;;;;;;;;;;22.16;20.87;96247.53;4947995;29;1595;-74
2021/01/27 09:26:52;;;;;;;;;;;;;;;21.65;21.29;96255.13;4948941;29;1891;-74
2021/01/27 09:29:24;;;;;;;;;;;;;;;21.71;21.35;96270.19;4964980;29;698;-74
2021/01/27 09:31:50;;;;;;;;;;;;;;;21.20;21.82;96270.47;4964818;29;1591;-73
2021/01/27 09:34:29;;;;;;;;;;;;;;;21.44;21.73;96273.28;4949105;29;662;-74
2021/01/27 09:37:02;;;;;;;;;;;;;;;22.01;21.07;96264.50;4964674;29;899;-73
2021/01/27 09:39:35;;;;;;;;;;;;;;;21.77;21.41;96262.59;4948915;29;898;-74
2021/01/27 09:42:01;;;;;;;;;;;;;;;21.26;21.77;96274.97;4964453;29;1567;-74
2021/01/27 09:44:36;;;;;;;;;;;;;;;21.44;21.29;96270.44;4964457;29;1528;-74
2021/01/27 09:47:08;;;;;;;;;;;;;;;21.77;21.29;96262.59;4964538;29;1899;-75
2021/01/27 09:49:47;;;;;;;;;;;;;;;21.88;20.99;96249.88;4948367;29;1457;-74
2021/01/27 09:52:26;;;;;;;;;;;;;;;21.73;21.37;96233.69;4949447;29;992;-73
2021/01/27 09:54:59;;;;;;;;;;;;;;;21.89;21.10;96246.56;4963756;28;1618;-74
2021/01/27 09:57:25;;;;;;;;;;;;;;;23.00;19.78;96251.56;4946937;29;718;-74
2021/01/27 09:59:57;;;;;;;;;;;;;;;22.92;19.66;96244.78;4964053;29;1578;-74
2021/01/27 10:02:31;;;;;;;;;;;;;;;22.15;20.51;96241.09;4948081;29;715;-74
2021/01/27 10:05:23;;;;;;;;;;;;;;;21.24;21.42;96254.91;4948575;29;1614;-74
2021/01/27 10:07:55;;;;;;;;;;;;;;;22.12;20.40;96250.56;4963933;29;1903;-74
2021/01/27 10:10:34;;;;;;;;;;;;;;;23.34;19.04;96253.53;4963659;29;1484;-74
2021/01/27 10:13:09;;;;;;;;;;;;;;;22.46;19.90;96259.59;4964176;29;647;-74
2021/01/27 10:15:41;;;;;;;;;;;;;;;22.81;19.59;96253.91;4948193;29;1567;-74
2021/01/27 10:18:08;;;;;;;;;;;;;;;22.07;20.54;96254.03;4964028;29;698;-74
2021/01/27 10:20:40;;;;;;;;;;;;;;;21.55;21.01;96274.28;4964401;29;592;-74
2021/01/27 10:23:12;;;;;;;;;;;;;;;21.92;20.79;96261.81;4963730;29;970;-74
2021/01/27 10:25:39;;;;;;;;;;;;;;;21.41;21.28;96243.13;4963333;29;1532;-74
2021/01/27 10:28:11;;;;;;;;;;;;;;;22.04;20.61;96230.34;4947918;29;1958;-74
2021/01/27 10:30:43;;;;;;;;;;;;;;;23.43;19.07;96227.06;4963812;29;709;-74
2021/01/27 10:33:27;;;;;;;;;;;;;;;23.09;19.08;96214.53;4963874;29;639;-74
2021/01/27 10:35:59;;;;;;;;;;;;;;;22.52;19.68;96212.25;4963316;29;1504;-74
2021/01/27 10:38:31;;;;;;;;;;;;;;;21.72;20.78;96231.34;4963393;29;1088;-74
2021/01/27 10:41:10;;;;;;;;;;;;;;;21.74;20.92;96242.94;4963192;29;1540;-74
2021/01/27 10:43:42;;;;;;;;;;;;;;;23.27;19.14;96244.69;4963646;29;675;-73
2021/01/27 10:46:25;;;;;;;;;;;;;;;22.82;19.68;96242.03;4963383;29;1731;-74
2021/01/27 10:49:14;;;;;;;;;;;;;;;21.62;20.77;96244.81;4947574;29;1071;-74
2021/01/27 10:51:46;;;;;;;;;;;;;;;21.44;21.36;96251.41;4948920;29;639;-73
2021/01/27 10:54:12;;;;;;;;;;;;;;;22.26;20.25;96244.09;4963031;29;912;-74
2021/01/27 10:56:44;;;;;;;;;;;;;;;23.16;19.17;96231.16;4947046;29;1536;-74
2021/01/27 10:59:16;;;;;;;;;;;;;;;22.25;20.29;96256.69;4963230;29;850;-74
2021/01/27 11:01:41;;;;;;;;;;;;;;;22.82;19.48;96258.28;4963044;29;1516;-73
2021/01/27 11:04:13;;;;;;;;;;;;;;;22.08;20.56;96276.22;4963259;29;599;-74
2021/01/27 11:06:45;;;;;;;;;;;;;;;21.67;20.94;96258.28;4963169;28;1910;-74
2021/01/27 11:09:11;;;;;;;;;;;;;;;21.36;21.21;96260.78;4946208;29;962;-74
2021/01/27 11:11:43;;;;;;;;;;;;;;;22.39;20.06;96266.44;4946912;29;1465;-74
2021/01/27 11:14:15;;;;;;;;;;;;;;;22.10;20.16;96261.56;4950065;29;1513;-74
2021/01/27 11:16:41;;;;;;;;;;;;;;;21.43;21.06;96283.03;4962942;29;1579;-74
2021/01/27 11:19:13;;;;;;;;;;;;;;;21.74;20.70;96297.50;4962809;29;1594;-74
2021/01/27 11:21:45;;;;;;;;;;;;;;;23.05;19.27;96293.41;4963284;29;775;-74
2021/01/27 11:24:10;;;;;;;;;;;;;;;23.01;19.18;96304.22;4962499;29;1081;-74
2021/01/27 11:26:42;;;;;;;;;;;;;;;22.54;19.94;96317.44;4962467;29;1908;-74
2021/01/27 11:29:17;;;;;;;;;;;;;;;22.55;19.96;96324.66;4962340;29;1369;-74
2021/01/27 11:31:49;;;;;;;;;;;;;;;22.19;20.09;96321.00;4962574;29;1932;-75
2021/01/27 11:34:14;;;;;;;;;;;;;;;21.91;20.77;96325.34;4962821;29;608;-74
2021/01/27 11:36:46;;;;;;;;;;;;;;;21.82;20.89;96344.00;4962802;29;641;-74
2021/01/27 11:39:12;;;;;;;;;;;;;;;21.75;20.78;96341.53;4962314;29;1468;-74
2021/01/27 11:41:44;;;;;;;;;;;;;;;21.49;21.10;96349.00;4962213;29;903;-74
2021/01/27 11:44:16;;;;;;;;;;;;;;;21.36;21.15;96340.00;4946091;29;1157;-75
2021/01/27 11:46:45;;;;;;;;;;;;;;;21.58;20.96;96329.13;4962559;29;1902;-74
2021/01/27 11:49:17;;;;;;;;;;;;;;;21.19;21.73;96343.25;4962056;29;1469;-74
2021/01/27 11:51:56;;;;;;;;;;;;;;;22.15;20.41;96353.63;4962399;29;1539;-74
2021/01/27 11:54:28;;;;;;;;;;;;;;;21.31;21.48;96356.38;4962210;29;858;-74
2021/01/27 11:56:54;;;;;;;;;;;;;;;21.87;20.52;96367.25;4962032;29;921;-74
2021/01/27 11:59:26;;;;;;;;;;;;;;;21.90;20.93;96377.59;4962254;29;655;-74
2021/01/27 12:01:51;;;;;;;;;;;;;;;22.06;20.69;96380.72;4962000;29;1935;-74
2021/01/27 12:04:23;;;;;;;;;;;;;;;22.35;19.90;96385.66;4962227;29;710;-74
2021/01/27 12:06:55;;;;;;;;;;;;;;;22.23;20.33;96400.91;4962227;29;1960;-74
2021/01/27 12:09:30;;;;;;;;;;;;;;;21.56;21.03;96393.94;4961974;29;970;-74
2021/01/27 12:11:58;;;;;;;;;;;;;;;21.55;21.00;96404.47;4961580;29;1566;-75
2021/01/27 12:14:30;;;;;;;;;;;;;;;21.55;20.80;96412.16;4942852;29;876;-74
2021/01/27 12:17:02;;;;;;;;;;;;;;;22.62;19.85;96403.63;4942833;29;715;-74
2021/01/27 12:19:28;;;;;;;;;;;;;;;23.36;18.96;96386.41;4942207;29;687;-74
2021/01/27 12:22:00;;;;;;;;;;;;;;;22.75;19.69;96389.13;4950644;29;1532;-74
2021/01/27 12:24:32;;;;;;;;;;;;;;;22.01;20.64;96384.22;4961810;29;828;-75
2021/01/27 12:26:57;;;;;;;;;;;;;;;21.85;20.85;96371.31;4945023;29;1970;-74
2021/01/27 12:29:29;;;;;;;;;;;;;;;21.94;20.63;96384.63;4961961;29;868;-74
2021/01/27 12:32:01;;;;;;;;;;;;;;;22.02;20.36;96377.31;4961924;29;1560;-74
2021/01/27 12:34:26;;;;;;;;;;;;;;;22.00;20.75;96376.22;4961688;29;1694;-74
2021/01/27 12:36:59;;;;;;;;;;;;;;;22.20;20.23;96378.44;4962080;29;687;-74
2021/01/27 12:39:31;;;;;;;;;;;;;;;21.78;20.63;96360.38;4961727;29;840;-74
2021/01/27 12:41:56;;;;;;;;;;;;;;;22.52;19.98;96340.56;4961219;29;1531;-74
2021/01/27 12:44:28;;;;;;;;;;;;;;;21.85;21.00;96345.06;4961853;29;623;-74
2021/01/27 12:47:00;;;;;;;;;;;;;;;22.28;20.17;96340.72;4961699;29;1899;-74
2021/01/27 12:49:26;;;;;;;;;;;;;;;21.84;20.86;96335.78;4961501;29;1553;-74
2021/01/27 12:51:58;;;;;;;;;;;;;;;22.04;20.68;96342.84;4961648;29;1516;-74
2021/01/27 12:54:30;;;;;;;;;;;;;;;23.21;19.25;96328.94;4961445;29;1112;-74
2021/01/27 12:56:56;;;;;;;;;;;;;;;23.17;19.17;96337.69;4961350;29;876;-75
2021/01/27 12:59:28;;;;;;;;;;;;;;;22.52;20.05;96348.31;4961650;29;822;-74
2021/01/27 13:02:00;;;;;;;;;;;;;;;21.74;20.71;96356.97;4961470;29;1535;-74
2021/01/27 13:04:26;;;;;;;;;;;;;;;21.69;21.30;96354.81;4961677;29;643;-74
2021/01/27 13:06:57;;;;;;;;;;;;;;;23.03;19.50;96367.66;4961689;29;1977;-75
2021/01/27 13:09:29;;;;;;;;;;;;;;;23.29;18.94;96359.25;4961375;29;903;-74
2021/01/27 13:11:54;;;;;;;;;;;;;;;22.20;20.03;96361.44;4961057;29;1528;-74
2021/01/27 13:14:26;;;;;;;;;;;;;;;21.50;21.07;96344.91;4961481;29;861;-74
2021/01/27 13:16:58;;;;;;;;;;;;;;;21.49;21.15;96343.34;4961557;29;611;-74
2021/01/27 13:19:23;;;;;;;;;;;;;;;22.60;20.02;96326.78;4961845;29;608;-74
2021/01/27 13:21:55;;;;;;;;;;;;;;;23.07;19.29;96322.06;4961289;29;1524;-74
2021/01/27 13:24:27;;;;;;;;;;;;;;;22.27;20.10;96344.81;4961153;29;915;-75
2021/01/27 13:26:59;;;;;;;;;;;;;;;21.67;21.07;96348.84;4961067;29;1973;-74
2021/01/27 13:29:24;;;;;;;;;;;;;;;21.87;20.73;96370.09;4961694;29;725;-74